Golden Valley, Arizona
Current Conditions -  °F | °C
As of 8:51 PM on Sunday 23 Nov 2014 (Local Time) from KIGM Reporting Station
Clear Clear  
Wind Chill: -1°   Ceiling: Unl
Heat Index:   Visibility: 10mi
Dew Point: -14°   Wind: 13mph
Humidity: 27%   Direction: 110°ESE
Pressure: 30.22"   Gusts: NA
Location:  35.22°N, 114.22°W
Report Text: KIGM 240351Z AUTO 11011KT 10SM CLR 03/M14 A3022 RMK AO2 SLP207 T00331144
Loading
Personal Weather Stations






























Interactive Weather Map New forecast layout! Learn more

10-Day Weather Forecast

Advertisements
Track Severe Weather on mobile